Kruger Mpumalanga International Airport


Codes: FAKN/MQP
Name: Kruger Mpumalanga International Airport
City: Mpumalanga
Country: South Africa
Elevation: 2829 ft.
Wikipedia:

Photos at Kruger Mpumalanga International Airport


   Photos courtesy of SpottingLog. You can add your own sightings and photos by signing up for a free trial today.



No photos found.

Weather at Kruger Mpumalanga International Airport


Time (UTC)DescriptionTempratureWindCloud coverageVisibilityPressureHumidity
25-Jun-2024 15:00Few Clouds21°C7 mph, E14%10000m1025hPa31%
25-Jun-2024 18:00Scattered Clouds16°C2 mph, SW27%10000m1027hPa55%
25-Jun-2024 21:00Light Rain12°C4 mph, SW60%10000m1030hPa81%
26-Jun-2024 00:00Broken Clouds11°C4 mph, SW51%10000m1029hPa81%
26-Jun-2024 03:00Overcast Clouds12°C4 mph, SW99%10000m1029hPa74%
26-Jun-2024 06:00Overcast Clouds13°C4 mph, SW92%10000m1030hPa68%
26-Jun-2024 09:00Broken Clouds19°C7 mph, SE83%10000m1030hPa45%
26-Jun-2024 12:00Broken Clouds21°C9 mph, SE54%10000m1026hPa38%
26-Jun-2024 15:00Scattered Clouds17°C7 mph, SE47%10000m1027hPa57%
26-Jun-2024 18:00Scattered Clouds13°C2 mph, SW40%10000m1030hPa83%
26-Jun-2024 21:00Broken Clouds13°C0 mph, E66%10000m1031hPa85%
27-Jun-2024 00:00Broken Clouds13°C0 mph, SE79%10000m1030hPa87%
27-Jun-2024 03:00Light Rain11°C2 mph, SW40%10000m1031hPa95%
27-Jun-2024 06:00Few Clouds13°C2 mph, SW21%10000m1032hPa83%
27-Jun-2024 09:00Clear Sky19°C4 mph, SE2%10000m1031hPa48%
27-Jun-2024 12:00Scattered Clouds20°C7 mph, SE35%10000m1028hPa42%
27-Jun-2024 15:00Overcast Clouds17°C4 mph, E98%10000m1028hPa55%
27-Jun-2024 18:00Light Rain14°C2 mph, SE95%10000m1031hPa80%
27-Jun-2024 21:00Light Rain12°C2 mph, SW54%10000m1031hPa96%
28-Jun-2024 00:00Broken Clouds12°C2 mph, SW63%10000m1030hPa94%
28-Jun-2024 03:00Broken Clouds12°C2 mph, SW81%10000m1030hPa90%
28-Jun-2024 06:00Broken Clouds13°C2 mph, SW66%10000m1030hPa84%
28-Jun-2024 09:00Broken Clouds18°C2 mph, SE68%10000m1029hPa59%
28-Jun-2024 12:00Broken Clouds21°C4 mph, E65%10000m1025hPa45%
28-Jun-2024 15:00Few Clouds17°C4 mph, E12%10000m1025hPa54%
28-Jun-2024 18:00Clear Sky12°C2 mph, NW7%10000m1027hPa70%
28-Jun-2024 21:00Clear Sky10°C2 mph, W1%10000m1027hPa79%
29-Jun-2024 00:00Clear Sky9°C4 mph, W2%10000m1026hPa85%
29-Jun-2024 03:00Clear Sky9°C4 mph, W4%10000m1025hPa87%
29-Jun-2024 06:00Clear Sky12°C2 mph, W4%10000m1025hPa68%
29-Jun-2024 09:00Clear Sky22°C2 mph, NE2%10000m1022hPa36%
29-Jun-2024 12:00Clear Sky24°C7 mph, NE3%10000m1018hPa28%
29-Jun-2024 15:00Clear Sky19°C7 mph, NE8%10000m1019hPa40%
29-Jun-2024 18:00Few Clouds14°C0 mph, SW19%10000m1021hPa57%
29-Jun-2024 21:00Scattered Clouds12°C4 mph, W25%10000m1021hPa64%
30-Jun-2024 00:00Few Clouds11°C4 mph, W15%10000m1020hPa63%
30-Jun-2024 03:00Clear Sky10°C4 mph, W2%10000m1020hPa61%
30-Jun-2024 06:00Clear Sky14°C4 mph, W2%10000m1020hPa48%
30-Jun-2024 09:00Clear Sky24°C7 mph, SW0%10000m1018hPa22%
30-Jun-2024 12:00Clear Sky26°C4 mph, S0%10000m1015hPa16%